sensor_id;sensor_type;location;lat;lon;timestamp;P1;durP1;ratioP1;P2;durP2;ratioP2
71715;SDS011;59568;52.128;5.434;2024-01-27T00:00:18;8.67;;;0.90;;
71715;SDS011;59568;52.128;5.434;2024-01-27T00:02:45;5.00;;;0.95;;
71715;SDS011;59568;52.128;5.434;2024-01-27T00:05:12;5.38;;;1.67;;
71715;SDS011;59568;52.128;5.434;2024-01-27T00:07:39;6.00;;;1.38;;
71715;SDS011;59568;52.128;5.434;2024-01-27T00:10:07;5.65;;;1.48;;
71715;SDS011;59568;52.128;5.434;2024-01-27T00:12:34;7.20;;;1.70;;
71715;SDS011;59568;52.128;5.434;2024-01-27T00:15:01;3.33;;;0.85;;
71715;SDS011;59568;52.128;5.434;2024-01-27T00:17:28;5.50;;;1.42;;
71715;SDS011;59568;52.128;5.434;2024-01-27T00:19:54;10.63;;;1.40;;
71715;SDS011;59568;52.128;5.434;2024-01-27T00:22:21;2.50;;;1.10;;
71715;SDS011;59568;52.128;5.434;2024-01-27T00:24:48;7.50;;;1.43;;
71715;SDS011;59568;52.128;5.434;2024-01-27T00:27:15;4.22;;;1.17;;
71715;SDS011;59568;52.128;5.434;2024-01-27T00:29:43;6.45;;;1.70;;
71715;SDS011;59568;52.128;5.434;2024-01-27T00:32:10;6.68;;;1.50;;
71715;SDS011;59568;52.128;5.434;2024-01-27T00:34:37;6.07;;;1.73;;
71715;SDS011;59568;52.128;5.434;2024-01-27T00:37:04;5.00;;;1.40;;
71715;SDS011;59568;52.128;5.434;2024-01-27T00:39:31;2.50;;;1.13;;
71715;SDS011;59568;52.128;5.434;2024-01-27T00:41:58;4.82;;;1.52;;
71715;SDS011;59568;52.128;5.434;2024-01-27T00:44:26;2.60;;;1.10;;
71715;SDS011;59568;52.128;5.434;2024-01-27T00:46:53;4.13;;;1.15;;
71715;SDS011;59568;52.128;5.434;2024-01-27T00:49:20;6.93;;;1.50;;
71715;SDS011;59568;52.128;5.434;2024-01-27T00:51:47;6.03;;;1.85;;
71715;SDS011;59568;52.128;5.434;2024-01-27T00:54:14;8.60;;;1.35;;
71715;SDS011;59568;52.128;5.434;2024-01-27T00:56:41;6.90;;;1.23;;
71715;SDS011;59568;52.128;5.434;2024-01-27T00:59:08;5.93;;;1.35;;
71715;SDS011;59568;52.128;5.434;2024-01-27T01:01:35;6.00;;;1.40;;
71715;SDS011;59568;52.128;5.434;2024-01-27T01:04:02;7.78;;;1.88;;
71715;SDS011;59568;52.128;5.434;2024-01-27T01:06:29;1.58;;;0.88;;
71715;SDS011;59568;52.128;5.434;2024-01-27T01:08:56;2.15;;;1.33;;
71715;SDS011;59568;52.128;5.434;2024-01-27T01:11:23;6.22;;;1.42;;
71715;SDS011;59568;52.128;5.434;2024-01-27T01:13:50;1.93;;;1.00;;
71715;SDS011;59568;52.128;5.434;2024-01-27T01:16:17;5.72;;;1.40;;
71715;SDS011;59568;52.128;5.434;2024-01-27T01:18:44;2.95;;;0.90;;
71715;SDS011;59568;52.128;5.434;2024-01-27T01:21:11;5.88;;;1.60;;
71715;SDS011;59568;52.128;5.434;2024-01-27T01:23:38;6.05;;;1.58;;
71715;SDS011;59568;52.128;5.434;2024-01-27T01:26:05;8.30;;;1.23;;
71715;SDS011;59568;52.128;5.434;2024-01-27T01:28:32;8.48;;;1.40;;
71715;SDS011;59568;52.128;5.434;2024-01-27T01:30:59;4.22;;;1.30;;
71715;SDS011;59568;52.128;5.434;2024-01-27T01:33:25;7.07;;;1.50;;
71715;SDS011;59568;52.128;5.434;2024-01-27T01:35:53;2.88;;;0.95;;
71715;SDS011;59568;52.128;5.434;2024-01-27T01:38:20;2.13;;;0.90;;
71715;SDS011;59568;52.128;5.434;2024-01-27T01:40:47;3.47;;;0.75;;
71715;SDS011;59568;52.128;5.434;2024-01-27T01:43:14;1.92;;;1.10;;
71715;SDS011;59568;52.128;5.434;2024-01-27T01:45:41;5.00;;;1.27;;
71715;SDS011;59568;52.128;5.434;2024-01-27T01:48:08;4.43;;;1.48;;
71715;SDS011;59568;52.128;5.434;2024-01-27T01:50:36;4.77;;;1.33;;
71715;SDS011;59568;52.128;5.434;2024-01-27T01:53:03;9.77;;;1.45;;
71715;SDS011;59568;52.128;5.434;2024-01-27T01:55:31;8.13;;;1.67;;
71715;SDS011;59568;52.128;5.434;2024-01-27T01:57:59;5.85;;;1.00;;
71715;SDS011;59568;52.128;5.434;2024-01-27T02:00:25;5.90;;;1.45;;
71715;SDS011;59568;52.128;5.434;2024-01-27T02:02:53;9.00;;;1.03;;
71715;SDS011;59568;52.128;5.434;2024-01-27T02:05:20;4.88;;;0.85;;
71715;SDS011;59568;52.128;5.434;2024-01-27T02:07:46;4.20;;;1.00;;
71715;SDS011;59568;52.128;5.434;2024-01-27T02:10:14;7.75;;;0.85;;
71715;SDS011;59568;52.128;5.434;2024-01-27T02:12:45;9.48;;;1.60;;
71715;SDS011;59568;52.128;5.434;2024-01-27T02:15:12;7.67;;;1.00;;
71715;SDS011;59568;52.128;5.434;2024-01-27T02:17:41;6.20;;;0.75;;
71715;SDS011;59568;52.128;5.434;2024-01-27T02:20:08;4.80;;;1.08;;
71715;SDS011;59568;52.128;5.434;2024-01-27T02:22:36;8.63;;;1.45;;
71715;SDS011;59568;52.128;5.434;2024-01-27T02:25:03;1.15;;;0.65;;
71715;SDS011;59568;52.128;5.434;2024-01-27T02:27:30;4.27;;;1.37;;
71715;SDS011;59568;52.128;5.434;2024-01-27T02:29:57;7.93;;;0.90;;
71715;SDS011;59568;52.128;5.434;2024-01-27T02:32:24;4.82;;;0.95;;
71715;SDS011;59568;52.128;5.434;2024-01-27T02:34:51;8.27;;;1.45;;
71715;SDS011;59568;52.128;5.434;2024-01-27T02:37:18;7.47;;;1.40;;
71715;SDS011;59568;52.128;5.434;2024-01-27T02:39:46;7.53;;;1.40;;
71715;SDS011;59568;52.128;5.434;2024-01-27T02:42:12;4.70;;;1.08;;
71715;SDS011;59568;52.128;5.434;2024-01-27T02:44:39;2.97;;;1.00;;
71715;SDS011;59568;52.128;5.434;2024-01-27T02:47:06;2.42;;;1.30;;
71715;SDS011;59568;52.128;5.434;2024-01-27T02:49:34;7.10;;;1.23;;
71715;SDS011;59568;52.128;5.434;2024-01-27T02:52:01;4.90;;;1.20;;
71715;SDS011;59568;52.128;5.434;2024-01-27T02:54:28;3.75;;;0.85;;
71715;SDS011;59568;52.128;5.434;2024-01-27T02:56:55;2.80;;;0.68;;
71715;SDS011;59568;52.128;5.434;2024-01-27T02:59:22;4.13;;;1.02;;
71715;SDS011;59568;52.128;5.434;2024-01-27T03:01:49;4.03;;;0.90;;
71715;SDS011;59568;52.128;5.434;2024-01-27T03:04:16;6.83;;;1.20;;
71715;SDS011;59568;52.128;5.434;2024-01-27T03:06:43;8.25;;;1.10;;
71715;SDS011;59568;52.128;5.434;2024-01-27T03:09:11;2.20;;;0.93;;
71715;SDS011;59568;52.128;5.434;2024-01-27T03:11:38;5.53;;;1.05;;
71715;SDS011;59568;52.128;5.434;2024-01-27T03:14:05;5.28;;;1.10;;
71715;SDS011;59568;52.128;5.434;2024-01-27T03:16:32;4.57;;;1.30;;
71715;SDS011;59568;52.128;5.434;2024-01-27T03:18:59;4.53;;;0.95;;
71715;SDS011;59568;52.128;5.434;2024-01-27T03:21:27;4.47;;;1.23;;
71715;SDS011;59568;52.128;5.434;2024-01-27T03:23:54;3.85;;;1.20;;
71715;SDS011;59568;52.128;5.434;2024-01-27T03:26:21;6.35;;;1.02;;
71715;SDS011;59568;52.128;5.434;2024-01-27T03:28:48;7.50;;;0.73;;
71715;SDS011;59568;52.128;5.434;2024-01-27T03:31:15;6.80;;;1.63;;
71715;SDS011;59568;52.128;5.434;2024-01-27T03:33:41;3.05;;;0.98;;
71715;SDS011;59568;52.128;5.434;2024-01-27T03:36:09;3.28;;;1.63;;
71715;SDS011;59568;52.128;5.434;2024-01-27T03:38:38;6.07;;;1.38;;
71715;SDS011;59568;52.128;5.434;2024-01-27T03:41:08;3.50;;;1.23;;
71715;SDS011;59568;52.128;5.434;2024-01-27T03:43:35;8.70;;;1.58;;
71715;SDS011;59568;52.128;5.434;2024-01-27T03:46:02;6.75;;;1.63;;
71715;SDS011;59568;52.128;5.434;2024-01-27T03:48:29;5.35;;;2.00;;
71715;SDS011;59568;52.128;5.434;2024-01-27T03:50:57;4.70;;;2.28;;
71715;SDS011;59568;52.128;5.434;2024-01-27T03:53:24;5.70;;;1.37;;
71715;SDS011;59568;52.128;5.434;2024-01-27T03:55:51;2.63;;;1.45;;
71715;SDS011;59568;52.128;5.434;2024-01-27T03:58:18;2.50;;;1.33;;
71715;SDS011;59568;52.128;5.434;2024-01-27T04:00:45;5.30;;;1.38;;
71715;SDS011;59568;52.128;5.434;2024-01-27T04:03:13;7.43;;;2.35;;
71715;SDS011;59568;52.128;5.434;2024-01-27T04:05:40;14.10;;;2.33;;
71715;SDS011;59568;52.128;5.434;2024-01-27T04:08:07;5.63;;;1.67;;
71715;SDS011;59568;52.128;5.434;2024-01-27T04:10:34;5.82;;;2.47;;
71715;SDS011;59568;52.128;5.434;2024-01-27T04:13:00;8.93;;;1.75;;
71715;SDS011;59568;52.128;5.434;2024-01-27T04:15:27;9.68;;;2.65;;
71715;SDS011;59568;52.128;5.434;2024-01-27T04:17:55;8.57;;;2.20;;
71715;SDS011;59568;52.128;5.434;2024-01-27T04:20:22;5.53;;;1.98;;
71715;SDS011;59568;52.128;5.434;2024-01-27T04:22:49;6.78;;;2.33;;
71715;SDS011;59568;52.128;5.434;2024-01-27T04:25:16;3.38;;;1.80;;
71715;SDS011;59568;52.128;5.434;2024-01-27T04:27:43;5.82;;;2.50;;
71715;SDS011;59568;52.128;5.434;2024-01-27T04:30:10;6.17;;;1.90;;
71715;SDS011;59568;52.128;5.434;2024-01-27T04:32:39;11.50;;;2.47;;
71715;SDS011;59568;52.128;5.434;2024-01-27T04:35:09;5.45;;;2.45;;
71715;SDS011;59568;52.128;5.434;2024-01-27T04:37:37;6.22;;;2.40;;
71715;SDS011;59568;52.128;5.434;2024-01-27T04:40:04;5.88;;;2.58;;
71715;SDS011;59568;52.128;5.434;2024-01-27T04:42:37;8.27;;;1.80;;
71715;SDS011;59568;52.128;5.434;2024-01-27T04:45:05;9.10;;;2.50;;
71715;SDS011;59568;52.128;5.434;2024-01-27T04:47:33;7.72;;;2.55;;
71715;SDS011;59568;52.128;5.434;2024-01-27T04:49:59;6.50;;;2.47;;
71715;SDS011;59568;52.128;5.434;2024-01-27T04:52:26;6.85;;;2.53;;
71715;SDS011;59568;52.128;5.434;2024-01-27T04:54:53;7.83;;;2.70;;
71715;SDS011;59568;52.128;5.434;2024-01-27T04:57:20;4.55;;;2.08;;
71715;SDS011;59568;52.128;5.434;2024-01-27T04:59:47;4.75;;;2.10;;
71715;SDS011;59568;52.128;5.434;2024-01-27T05:02:15;4.85;;;2.20;;
71715;SDS011;59568;52.128;5.434;2024-01-27T05:04:41;11.52;;;2.75;;
71715;SDS011;59568;52.128;5.434;2024-01-27T05:07:08;5.37;;;2.30;;
71715;SDS011;59568;52.128;5.434;2024-01-27T05:09:36;5.18;;;2.50;;
71715;SDS011;59568;52.128;5.434;2024-01-27T05:12:03;3.65;;;2.67;;
71715;SDS011;59568;52.128;5.434;2024-01-27T05:14:30;8.00;;;2.65;;
71715;SDS011;59568;52.128;5.434;2024-01-27T05:16:57;4.70;;;3.00;;
71715;SDS011;59568;52.128;5.434;2024-01-27T05:19:24;10.83;;;3.27;;
71715;SDS011;59568;52.128;5.434;2024-01-27T05:21:51;9.20;;;3.20;;
71715;SDS011;59568;52.128;5.434;2024-01-27T05:24:17;7.47;;;2.95;;
71715;SDS011;59568;52.128;5.434;2024-01-27T05:26:45;10.13;;;3.58;;
71715;SDS011;59568;52.128;5.434;2024-01-27T05:29:11;7.05;;;3.80;;
71715;SDS011;59568;52.128;5.434;2024-01-27T05:31:38;6.10;;;3.20;;
71715;SDS011;59568;52.128;5.434;2024-01-27T05:34:05;8.65;;;2.80;;
71715;SDS011;59568;52.128;5.434;2024-01-27T05:36:32;4.70;;;2.95;;
71715;SDS011;59568;52.128;5.434;2024-01-27T05:38:59;7.70;;;3.03;;
71715;SDS011;59568;52.128;5.434;2024-01-27T05:41:26;6.25;;;3.28;;
71715;SDS011;59568;52.128;5.434;2024-01-27T05:43:55;9.23;;;3.53;;
71715;SDS011;59568;52.128;5.434;2024-01-27T05:46:26;14.80;;;3.58;;
71715;SDS011;59568;52.128;5.434;2024-01-27T05:48:53;5.43;;;3.08;;
71715;SDS011;59568;52.128;5.434;2024-01-27T05:51:21;6.78;;;2.95;;
71715;SDS011;59568;52.128;5.434;2024-01-27T05:53:52;10.70;;;3.58;;
71715;SDS011;59568;52.128;5.434;2024-01-27T05:56:20;7.23;;;3.57;;
71715;SDS011;59568;52.128;5.434;2024-01-27T05:58:47;8.35;;;3.67;;
71715;SDS011;59568;52.128;5.434;2024-01-27T06:01:14;7.35;;;3.45;;
71715;SDS011;59568;52.128;5.434;2024-01-27T06:03:41;11.48;;;4.13;;
71715;SDS011;59568;52.128;5.434;2024-01-27T06:06:10;7.30;;;2.83;;
71715;SDS011;59568;52.128;5.434;2024-01-27T06:08:37;8.37;;;3.70;;
71715;SDS011;59568;52.128;5.434;2024-01-27T06:11:04;6.30;;;3.65;;
71715;SDS011;59568;52.128;5.434;2024-01-27T06:13:35;11.68;;;3.95;;
71715;SDS011;59568;52.128;5.434;2024-01-27T06:16:07;9.98;;;3.78;;
71715;SDS011;59568;52.128;5.434;2024-01-27T06:18:36;10.80;;;4.32;;
71715;SDS011;59568;52.128;5.434;2024-01-27T06:21:05;13.10;;;4.27;;
71715;SDS011;59568;52.128;5.434;2024-01-27T06:23:33;6.88;;;3.50;;
71715;SDS011;59568;52.128;5.434;2024-01-27T06:26:04;6.38;;;3.50;;
71715;SDS011;59568;52.128;5.434;2024-01-27T06:28:34;5.85;;;4.50;;
71715;SDS011;59568;52.128;5.434;2024-01-27T06:31:04;9.65;;;4.90;;
71715;SDS011;59568;52.128;5.434;2024-01-27T06:33:32;6.37;;;3.53;;
71715;SDS011;59568;52.128;5.434;2024-01-27T06:35:59;8.57;;;3.72;;
71715;SDS011;59568;52.128;5.434;2024-01-27T06:38:28;11.15;;;4.35;;
71715;SDS011;59568;52.128;5.434;2024-01-27T06:40:55;10.00;;;4.45;;
71715;SDS011;59568;52.128;5.434;2024-01-27T06:43:22;7.53;;;4.55;;
71715;SDS011;59568;52.128;5.434;2024-01-27T06:45:50;8.90;;;4.90;;
71715;SDS011;59568;52.128;5.434;2024-01-27T06:48:17;14.15;;;3.53;;
71715;SDS011;59568;52.128;5.434;2024-01-27T06:50:44;11.60;;;4.35;;
71715;SDS011;59568;52.128;5.434;2024-01-27T06:53:11;7.53;;;4.10;;
71715;SDS011;59568;52.128;5.434;2024-01-27T06:55:38;14.50;;;4.72;;
71715;SDS011;59568;52.128;5.434;2024-01-27T06:58:09;9.20;;;3.93;;
71715;SDS011;59568;52.128;5.434;2024-01-27T07:00:36;11.25;;;4.05;;
71715;SDS011;59568;52.128;5.434;2024-01-27T07:03:03;9.77;;;4.32;;
71715;SDS011;59568;52.128;5.434;2024-01-27T07:05:30;8.70;;;4.25;;
71715;SDS011;59568;52.128;5.434;2024-01-27T07:07:59;8.38;;;4.88;;
71715;SDS011;59568;52.128;5.434;2024-01-27T07:10:26;5.77;;;4.10;;
71715;SDS011;59568;52.128;5.434;2024-01-27T07:12:53;9.10;;;3.90;;
71715;SDS011;59568;52.128;5.434;2024-01-27T07:15:20;10.27;;;4.68;;
71715;SDS011;59568;52.128;5.434;2024-01-27T07:17:48;9.82;;;4.68;;
71715;SDS011;59568;52.128;5.434;2024-01-27T07:20:15;5.47;;;3.92;;
71715;SDS011;59568;52.128;5.434;2024-01-27T07:22:42;10.93;;;4.43;;
71715;SDS011;59568;52.128;5.434;2024-01-27T07:25:09;8.82;;;4.35;;
71715;SDS011;59568;52.128;5.434;2024-01-27T07:27:36;7.72;;;3.95;;
71715;SDS011;59568;52.128;5.434;2024-01-27T07:30:03;7.10;;;4.45;;
71715;SDS011;59568;52.128;5.434;2024-01-27T07:32:32;6.68;;;4.35;;
71715;SDS011;59568;52.128;5.434;2024-01-27T07:34:59;8.00;;;4.97;;
71715;SDS011;59568;52.128;5.434;2024-01-27T07:37:25;8.15;;;4.25;;
71715;SDS011;59568;52.128;5.434;2024-01-27T07:39:52;7.97;;;4.53;;
71715;SDS011;59568;52.128;5.434;2024-01-27T07:42:19;8.68;;;4.28;;
71715;SDS011;59568;52.128;5.434;2024-01-27T07:44:46;6.95;;;5.03;;
71715;SDS011;59568;52.128;5.434;2024-01-27T07:47:13;6.00;;;3.67;;
71715;SDS011;59568;52.128;5.434;2024-01-27T07:49:40;12.57;;;4.00;;
71715;SDS011;59568;52.128;5.434;2024-01-27T07:52:08;18.10;;;5.30;;
71715;SDS011;59568;52.128;5.434;2024-01-27T07:54:35;11.45;;;4.88;;
71715;SDS011;59568;52.128;5.434;2024-01-27T07:57:05;9.95;;;4.10;;
71715;SDS011;59568;52.128;5.434;2024-01-27T07:59:33;9.73;;;4.93;;
71715;SDS011;59568;52.128;5.434;2024-01-27T08:02:00;8.50;;;4.10;;
71715;SDS011;59568;52.128;5.434;2024-01-27T08:04:27;9.70;;;4.82;;
71715;SDS011;59568;52.128;5.434;2024-01-27T08:06:54;9.18;;;4.93;;
71715;SDS011;59568;52.128;5.434;2024-01-27T08:09:21;9.77;;;4.68;;
71715;SDS011;59568;52.128;5.434;2024-01-27T08:11:48;15.77;;;4.23;;
71715;SDS011;59568;52.128;5.434;2024-01-27T08:14:18;6.57;;;4.40;;
71715;SDS011;59568;52.128;5.434;2024-01-27T08:16:46;8.18;;;4.05;;
71715;SDS011;59568;52.128;5.434;2024-01-27T08:19:13;11.75;;;4.47;;
71715;SDS011;59568;52.128;5.434;2024-01-27T08:21:47;10.40;;;5.32;;
71715;SDS011;59568;52.128;5.434;2024-01-27T08:24:14;9.77;;;5.23;;
71715;SDS011;59568;52.128;5.434;2024-01-27T08:26:42;8.68;;;5.22;;
71715;SDS011;59568;52.128;5.434;2024-01-27T08:29:09;7.88;;;4.40;;
71715;SDS011;59568;52.128;5.434;2024-01-27T08:31:36;9.95;;;4.78;;
71715;SDS011;59568;52.128;5.434;2024-01-27T08:34:05;9.10;;;4.45;;
71715;SDS011;59568;52.128;5.434;2024-01-27T08:36:33;14.33;;;5.67;;
71715;SDS011;59568;52.128;5.434;2024-01-27T08:39:01;10.50;;;4.68;;
71715;SDS011;59568;52.128;5.434;2024-01-27T08:41:28;8.77;;;3.85;;
71715;SDS011;59568;52.128;5.434;2024-01-27T08:43:55;11.90;;;4.75;;
71715;SDS011;59568;52.128;5.434;2024-01-27T08:46:22;9.75;;;4.35;;
71715;SDS011;59568;52.128;5.434;2024-01-27T08:48:49;13.23;;;4.43;;
71715;SDS011;59568;52.128;5.434;2024-01-27T08:51:16;8.57;;;4.03;;
71715;SDS011;59568;52.128;5.434;2024-01-27T08:53:44;14.98;;;4.20;;
71715;SDS011;59568;52.128;5.434;2024-01-27T08:56:17;10.05;;;4.25;;
71715;SDS011;59568;52.128;5.434;2024-01-27T08:58:45;10.70;;;4.80;;
71715;SDS011;59568;52.128;5.434;2024-01-27T09:01:15;8.57;;;4.60;;
71715;SDS011;59568;52.128;5.434;2024-01-27T09:03:43;8.23;;;4.60;;
71715;SDS011;59568;52.128;5.434;2024-01-27T09:06:10;12.13;;;4.43;;
71715;SDS011;59568;52.128;5.434;2024-01-27T09:08:38;12.27;;;5.25;;
71715;SDS011;59568;52.128;5.434;2024-01-27T09:11:05;13.35;;;4.70;;
71715;SDS011;59568;52.128;5.434;2024-01-27T09:13:33;10.83;;;4.57;;
71715;SDS011;59568;52.128;5.434;2024-01-27T09:16:00;9.77;;;4.13;;
71715;SDS011;59568;52.128;5.434;2024-01-27T09:18:27;12.65;;;4.70;;
71715;SDS011;59568;52.128;5.434;2024-01-27T09:20:57;9.13;;;4.38;;
71715;SDS011;59568;52.128;5.434;2024-01-27T09:23:24;11.02;;;4.65;;
71715;SDS011;59568;52.128;5.434;2024-01-27T09:25:52;8.30;;;4.10;;
71715;SDS011;59568;52.128;5.434;2024-01-27T09:28:19;8.63;;;4.07;;
71715;SDS011;59568;52.128;5.434;2024-01-27T09:30:46;12.02;;;4.10;;
71715;SDS011;59568;52.128;5.434;2024-01-27T09:33:14;13.23;;;4.82;;
71715;SDS011;59568;52.128;5.434;2024-01-27T09:35:41;10.23;;;4.75;;
71715;SDS011;59568;52.128;5.434;2024-01-27T09:38:08;12.77;;;5.00;;
71715;SDS011;59568;52.128;5.434;2024-01-27T09:40:38;12.82;;;4.45;;
71715;SDS011;59568;52.128;5.434;2024-01-27T09:43:05;11.43;;;4.68;;
71715;SDS011;59568;52.128;5.434;2024-01-27T09:45:33;11.50;;;4.47;;
71715;SDS011;59568;52.128;5.434;2024-01-27T09:48:02;12.13;;;4.60;;
71715;SDS011;59568;52.128;5.434;2024-01-27T09:50:32;11.03;;;4.40;;
71715;SDS011;59568;52.128;5.434;2024-01-27T09:52:59;15.57;;;5.43;;
71715;SDS011;59568;52.128;5.434;2024-01-27T09:55:27;9.57;;;4.75;;
71715;SDS011;59568;52.128;5.434;2024-01-27T09:57:54;11.57;;;4.75;;
71715;SDS011;59568;52.128;5.434;2024-01-27T10:00:21;11.10;;;4.88;;
71715;SDS011;59568;52.128;5.434;2024-01-27T10:02:49;11.53;;;5.17;;
71715;SDS011;59568;52.128;5.434;2024-01-27T10:05:17;6.78;;;4.47;;
71715;SDS011;59568;52.128;5.434;2024-01-27T10:07:45;11.88;;;5.57;;
71715;SDS011;59568;52.128;5.434;2024-01-27T10:10:12;8.13;;;5.30;;
71715;SDS011;59568;52.128;5.434;2024-01-27T10:12:42;10.85;;;5.47;;
71715;SDS011;59568;52.128;5.434;2024-01-27T10:15:19;12.43;;;4.87;;
71715;SDS011;59568;52.128;5.434;2024-01-27T10:17:49;12.80;;;4.55;;
71715;SDS011;59568;52.128;5.434;2024-01-27T10:20:17;7.78;;;4.00;;
71715;SDS011;59568;52.128;5.434;2024-01-27T10:22:46;8.30;;;4.57;;
71715;SDS011;59568;52.128;5.434;2024-01-27T10:25:13;14.35;;;4.88;;
71715;SDS011;59568;52.128;5.434;2024-01-27T10:27:41;12.10;;;4.03;;
71715;SDS011;59568;52.128;5.434;2024-01-27T10:30:14;9.88;;;4.43;;
71715;SDS011;59568;52.128;5.434;2024-01-27T10:32:54;13.98;;;4.65;;
71715;SDS011;59568;52.128;5.434;2024-01-27T10:35:22;12.48;;;4.88;;
71715;SDS011;59568;52.128;5.434;2024-01-27T10:37:53;10.13;;;4.35;;
71715;SDS011;59568;52.128;5.434;2024-01-27T10:40:25;22.23;;;5.50;;
71715;SDS011;59568;52.128;5.434;2024-01-27T10:43:06;8.10;;;4.90;;
71715;SDS011;59568;52.128;5.434;2024-01-27T10:45:37;9.68;;;4.63;;
71715;SDS011;59568;52.128;5.434;2024-01-27T10:48:07;9.45;;;4.28;;
71715;SDS011;59568;52.128;5.434;2024-01-27T10:50:39;10.25;;;4.47;;
71715;SDS011;59568;52.128;5.434;2024-01-27T10:53:23;11.63;;;4.67;;
71715;SDS011;59568;52.128;5.434;2024-01-27T10:55:53;10.18;;;4.75;;
71715;SDS011;59568;52.128;5.434;2024-01-27T10:58:24;11.63;;;5.25;;
71715;SDS011;59568;52.128;5.434;2024-01-27T11:00:52;11.65;;;4.93;;
71715;SDS011;59568;52.128;5.434;2024-01-27T11:03:21;9.93;;;4.22;;
71715;SDS011;59568;52.128;5.434;2024-01-27T11:05:51;10.20;;;4.10;;
71715;SDS011;59568;52.128;5.434;2024-01-27T11:08:19;9.50;;;3.83;;
71715;SDS011;59568;52.128;5.434;2024-01-27T11:10:50;11.18;;;4.00;;
71715;SDS011;59568;52.128;5.434;2024-01-27T11:13:18;16.38;;;4.85;;
71715;SDS011;59568;52.128;5.434;2024-01-27T11:15:54;14.85;;;4.13;;
71715;SDS011;59568;52.128;5.434;2024-01-27T11:18:21;17.87;;;5.00;;
71715;SDS011;59568;52.128;5.434;2024-01-27T11:20:49;7.60;;;3.78;;
71715;SDS011;59568;52.128;5.434;2024-01-27T11:23:20;11.10;;;4.13;;
71715;SDS011;59568;52.128;5.434;2024-01-27T11:25:47;15.25;;;3.78;;
71715;SDS011;59568;52.128;5.434;2024-01-27T11:28:16;10.20;;;3.90;;
71715;SDS011;59568;52.128;5.434;2024-01-27T11:30:46;8.37;;;3.53;;
71715;SDS011;59568;52.128;5.434;2024-01-27T11:33:14;8.35;;;3.17;;
71715;SDS011;59568;52.128;5.434;2024-01-27T11:35:42;12.27;;;3.47;;
71715;SDS011;59568;52.128;5.434;2024-01-27T11:38:09;9.52;;;3.70;;
71715;SDS011;59568;52.128;5.434;2024-01-27T11:40:48;6.97;;;2.97;;
71715;SDS011;59568;52.128;5.434;2024-01-27T11:43:16;11.13;;;2.87;;
71715;SDS011;59568;52.128;5.434;2024-01-27T11:45:43;11.75;;;4.03;;
71715;SDS011;59568;52.128;5.434;2024-01-27T11:48:21;7.13;;;3.40;;
71715;SDS011;59568;52.128;5.434;2024-01-27T11:50:59;9.60;;;3.30;;
71715;SDS011;59568;52.128;5.434;2024-01-27T11:53:32;11.90;;;3.50;;
71715;SDS011;59568;52.128;5.434;2024-01-27T11:55:59;10.23;;;3.10;;
71715;SDS011;59568;52.128;5.434;2024-01-27T11:58:28;10.32;;;3.20;;
71715;SDS011;59568;52.128;5.434;2024-01-27T12:00:56;6.35;;;3.17;;
71715;SDS011;59568;52.128;5.434;2024-01-27T12:03:25;8.32;;;2.95;;
71715;SDS011;59568;52.128;5.434;2024-01-27T12:05:52;12.15;;;2.60;;
71715;SDS011;59568;52.128;5.434;2024-01-27T12:08:19;7.67;;;2.60;;
71715;SDS011;59568;52.128;5.434;2024-01-27T12:10:46;12.57;;;3.40;;
71715;SDS011;59568;52.128;5.434;2024-01-27T12:13:14;6.30;;;2.92;;
71715;SDS011;59568;52.128;5.434;2024-01-27T12:15:42;7.80;;;3.10;;
71715;SDS011;59568;52.128;5.434;2024-01-27T12:18:10;5.05;;;2.33;;
71715;SDS011;59568;52.128;5.434;2024-01-27T12:20:38;9.27;;;3.17;;
71715;SDS011;59568;52.128;5.434;2024-01-27T12:23:06;5.57;;;2.33;;
71715;SDS011;59568;52.128;5.434;2024-01-27T12:25:33;10.80;;;2.78;;
71715;SDS011;59568;52.128;5.434;2024-01-27T12:28:04;8.18;;;3.05;;
71715;SDS011;59568;52.128;5.434;2024-01-27T12:30:34;11.80;;;3.10;;
71715;SDS011;59568;52.128;5.434;2024-01-27T12:33:01;4.93;;;1.97;;
71715;SDS011;59568;52.128;5.434;2024-01-27T12:35:35;12.90;;;3.30;;
71715;SDS011;59568;52.128;5.434;2024-01-27T12:38:02;9.57;;;3.63;;
71715;SDS011;59568;52.128;5.434;2024-01-27T12:40:32;9.77;;;3.42;;
71715;SDS011;59568;52.128;5.434;2024-01-27T12:42:59;9.10;;;3.58;;
71715;SDS011;59568;52.128;5.434;2024-01-27T12:45:26;10.73;;;2.43;;
71715;SDS011;59568;52.128;5.434;2024-01-27T12:47:56;8.32;;;3.40;;
71715;SDS011;59568;52.128;5.434;2024-01-27T12:50:23;10.93;;;3.17;;
71715;SDS011;59568;52.128;5.434;2024-01-27T12:52:50;10.43;;;2.67;;
71715;SDS011;59568;52.128;5.434;2024-01-27T12:55:17;7.78;;;3.20;;
71715;SDS011;59568;52.128;5.434;2024-01-27T12:57:45;11.30;;;2.37;;
71715;SDS011;59568;52.128;5.434;2024-01-27T13:00:13;7.63;;;2.25;;
71715;SDS011;59568;52.128;5.434;2024-01-27T13:02:42;12.05;;;2.88;;
71715;SDS011;59568;52.128;5.434;2024-01-27T13:05:09;12.00;;;2.97;;
71715;SDS011;59568;52.128;5.434;2024-01-27T13:07:36;7.63;;;2.38;;
71715;SDS011;59568;52.128;5.434;2024-01-27T13:10:04;10.70;;;2.77;;
71715;SDS011;59568;52.128;5.434;2024-01-27T13:12:31;8.32;;;2.38;;
71715;SDS011;59568;52.128;5.434;2024-01-27T13:14:58;6.85;;;2.35;;
71715;SDS011;59568;52.128;5.434;2024-01-27T13:17:25;5.97;;;2.83;;
71715;SDS011;59568;52.128;5.434;2024-01-27T13:19:52;10.02;;;2.58;;
71715;SDS011;59568;52.128;5.434;2024-01-27T13:22:20;5.97;;;2.73;;
71715;SDS011;59568;52.128;5.434;2024-01-27T13:24:50;9.95;;;2.47;;
71715;SDS011;59568;52.128;5.434;2024-01-27T13:27:18;13.00;;;2.35;;
71715;SDS011;59568;52.128;5.434;2024-01-27T13:29:45;6.00;;;2.30;;
71715;SDS011;59568;52.128;5.434;2024-01-27T13:32:12;7.43;;;2.00;;
71715;SDS011;59568;52.128;5.434;2024-01-27T13:34:39;8.47;;;2.17;;
71715;SDS011;59568;52.128;5.434;2024-01-27T13:37:07;8.68;;;2.35;;
71715;SDS011;59568;52.128;5.434;2024-01-27T13:39:35;11.15;;;2.25;;
71715;SDS011;59568;52.128;5.434;2024-01-27T13:42:03;13.40;;;2.55;;
71715;SDS011;59568;52.128;5.434;2024-01-27T13:44:31;9.00;;;2.38;;
71715;SDS011;59568;52.128;5.434;2024-01-27T13:47:02;8.97;;;2.23;;
71715;SDS011;59568;52.128;5.434;2024-01-27T13:49:34;8.63;;;2.38;;
71715;SDS011;59568;52.128;5.434;2024-01-27T13:52:01;7.38;;;2.25;;
71715;SDS011;59568;52.128;5.434;2024-01-27T13:54:32;8.48;;;2.20;;
71715;SDS011;59568;52.128;5.434;2024-01-27T13:57:04;12.20;;;2.85;;
71715;SDS011;59568;52.128;5.434;2024-01-27T13:59:31;11.47;;;2.70;;
71715;SDS011;59568;52.128;5.434;2024-01-27T14:02:00;8.32;;;3.55;;
71715;SDS011;59568;52.128;5.434;2024-01-27T14:04:27;8.93;;;3.00;;
71715;SDS011;59568;52.128;5.434;2024-01-27T14:06:54;9.30;;;2.80;;
71715;SDS011;59568;52.128;5.434;2024-01-27T14:09:23;6.28;;;2.78;;
71715;SDS011;59568;52.128;5.434;2024-01-27T14:11:50;13.70;;;4.10;;
71715;SDS011;59568;52.128;5.434;2024-01-27T14:14:17;13.48;;;4.00;;
71715;SDS011;59568;52.128;5.434;2024-01-27T14:16:44;10.40;;;3.60;;
71715;SDS011;59568;52.128;5.434;2024-01-27T14:19:12;11.45;;;3.55;;
71715;SDS011;59568;52.128;5.434;2024-01-27T14:21:40;16.77;;;4.40;;
71715;SDS011;59568;52.128;5.434;2024-01-27T14:24:07;11.90;;;3.60;;
71715;SDS011;59568;52.128;5.434;2024-01-27T14:26:34;13.75;;;3.33;;
71715;SDS011;59568;52.128;5.434;2024-01-27T14:29:02;9.80;;;3.33;;
71715;SDS011;59568;52.128;5.434;2024-01-27T14:31:29;12.98;;;3.75;;
71715;SDS011;59568;52.128;5.434;2024-01-27T14:33:57;12.70;;;3.20;;
71715;SDS011;59568;52.128;5.434;2024-01-27T14:36:25;10.80;;;3.50;;
71715;SDS011;59568;52.128;5.434;2024-01-27T14:38:52;8.15;;;2.58;;
71715;SDS011;59568;52.128;5.434;2024-01-27T14:41:20;8.73;;;2.63;;
71715;SDS011;59568;52.128;5.434;2024-01-27T14:43:47;11.18;;;2.90;;
71715;SDS011;59568;52.128;5.434;2024-01-27T14:46:17;6.00;;;2.40;;